TimeMDT,TemperatureF,Dew PointF,Humidity,Sea Level PressureIn,VisibilityMPH,Wind Direction,Wind SpeedMPH,Gust SpeedMPH,PrecipitationIn,Events,Conditions,WindDirDegrees,DateUTC
12:53 AM,42.1,25.0,51,29.91,10.0,Calm,Calm,-,N/A,,Partly Cloudy,0,2012-10-11 06:53:00
1:53 AM,55.0,23.0,29,29.87,10.0,South,8.1,-,N/A,,Partly Cloudy,180,2012-10-11 07:53:00
2:53 AM,48.9,25.0,39,29.89,10.0,WSW,4.6,-,N/A,,Mostly Cloudy,240,2012-10-11 08:53:00
3:53 AM,50.0,25.0,38,29.91,10.0,NW,5.8,-,N/A,,Scattered Clouds,320,2012-10-11 09:53:00
4:53 AM,44.1,26.1,49,29.93,10.0,North,5.8,-,N/A,,Overcast,360,2012-10-11 10:53:00
5:53 AM,41.0,25.0,53,29.94,10.0,NE,4.6,-,N/A,,Partly Cloudy,40,2012-10-11 11:53:00
6:53 AM,39.9,24.1,53,29.97,10.0,Calm,Calm,-,N/A,,Scattered Clouds,0,2012-10-11 12:53:00
7:53 AM,39.9,24.1,53,30.01,10.0,NE,4.6,-,N/A,,Partly Cloudy,50,2012-10-11 13:53:00
8:53 AM,39.9,26.1,58,30.04,10.0,NE,3.5,-,N/A,,Clear,50,2012-10-11 14:53:00
9:53 AM,44.1,28.0,53,30.06,10.0,Calm,Calm,-,N/A,,Clear,0,2012-10-11 15:53:00
10:53 AM,53.1,27.0,37,30.04,10.0,East,3.5,-,N/A,,Clear,80,2012-10-11 16:53:00
11:53 AM,61.0,27.0,27,30.00,10.0,Variable,3.5,-,N/A,,Clear,0,2012-10-11 17:53:00
12:53 PM,64.0,26.1,24,29.99,10.0,WSW,6.9,-,N/A,,Clear,250,2012-10-11 18:53:00
1:53 PM,66.9,27.0,22,29.92,10.0,SW,10.4,-,N/A,,Clear,230,2012-10-11 19:53:00
2:53 PM,68.0,26.1,21,29.91,10.0,SW,5.8,-,N/A,,Clear,220,2012-10-11 20:53:00
5:53 PM,70.0,24.1,18,29.88,10.0,Calm,Calm,-,N/A,,Clear,0,2012-10-11 23:53:00
7:53 PM,55.9,30.0,37,29.93,10.0,Calm,Calm,-,N/A,,Clear,0,2012-10-12 01:53:00
8:53 PM,51.1,32.0,48,29.94,10.0,Calm,Calm,-,N/A,,Clear,0,2012-10-12 02:53:00
9:53 PM,46.9,27.0,46,29.96,10.0,NE,5.8,-,N/A,,Clear,40,2012-10-12 03:53:00
10:53 PM,45.0,25.0,46,29.94,10.0,NE,3.5,-,N/A,,Clear,40,2012-10-12 04:53:00